Time;durP1;ratioP1;P1;durP2;ratioP2;P2;SDS_P1;SDS_P2;PMS_P1;PMS_P2;Temp;Humidity;BMP_temperature;BMP_pressure;BME280_temperature;BME280_humidity;BME280_pressure;Samples;Min_cycle;Max_cycle;Signal;HPM_P1;HPM_P2
2023/08/04 00:00:20;;;;;;;;;;;20.40;99.90;;;;;;5011487;28;19989;-69
2023/08/04 00:02:47;;;;;;;;;;;20.90;99.90;;;;;;4993400;28;19961;-70
2023/08/04 00:05:14;;;;;;;;;;;21.10;99.90;;;;;;4997424;28;19968;-69
2023/08/04 00:07:42;;;;;;;;;;;21.10;99.90;;;;;;5009749;28;19906;-69
2023/08/04 00:10:09;;;;;;;;;;;21.40;99.90;;;;;;5011824;28;20005;-69
2023/08/04 00:12:36;;;;;;;;;;;21.00;99.90;;;;;;5012104;28;20053;-69
2023/08/04 00:15:02;;;;;;;;;;;21.40;99.90;;;;;;5011338;28;20329;-69
2023/08/04 00:17:29;;;;;;;;;;;21.50;99.90;;;;;;5011924;28;19963;-69
2023/08/04 00:19:56;;;;;;;;;;;21.60;99.90;;;;;;5011835;28;25063;-71
2023/08/04 00:22:22;;;;;;;;;;;21.60;99.90;;;;;;5011948;28;19972;-69
2023/08/04 00:24:49;;;;;;;;;;;21.60;99.90;;;;;;5011383;28;20121;-69
2023/08/04 00:27:15;;;;;;;;;;;21.90;99.90;;;;;;5011654;28;20091;-70
2023/08/04 00:29:42;;;;;;;;;;;22.10;99.90;;;;;;5011718;28;20079;-69
2023/08/04 00:32:09;;;;;;;;;;;22.50;99.90;;;;;;5012516;28;20051;-70
2023/08/04 00:34:35;;;;;;;;;;;22.50;99.90;;;;;;5011417;28;20107;-70
2023/08/04 00:37:02;;;;;;;;;;;22.90;99.90;;;;;;5015232;28;20395;-69
2023/08/04 00:39:29;;;;;;;;;;;23.10;99.90;;;;;;5015828;28;20074;-70
2023/08/04 00:41:55;;;;;;;;;;;23.10;99.90;;;;;;5014622;28;20177;-70
2023/08/04 00:44:22;;;;;;;;;;;23.60;99.90;;;;;;5014940;28;20454;-70
2023/08/04 00:46:49;;;;;;;;;;;23.60;99.90;;;;;;5015338;28;20115;-70
2023/08/04 00:49:18;;;;;;;;;;;23.90;99.90;;;;;;5015080;28;20090;-70
2023/08/04 00:51:45;;;;;;;;;;;23.90;99.90;;;;;;5014710;28;20084;-70
2023/08/04 00:54:12;;;;;;;;;;;23.50;99.90;;;;;;5015515;28;20467;-69
2023/08/04 00:56:39;;;;;;;;;;;23.50;99.90;;;;;;5015014;28;20091;-70
2023/08/04 00:59:06;;;;;;;;;;;24.00;99.90;;;;;;5011333;28;20108;-69
2023/08/04 01:01:33;;;;;;;;;;;24.70;99.90;;;;;;5014341;28;20097;-70
2023/08/04 01:04:00;;;;;;;;;;;24.40;99.90;;;;;;5014321;28;19978;-70
2023/08/04 01:06:32;;;;;;;;;;;24.70;99.90;;;;;;5014862;28;20092;-68
2023/08/04 01:08:59;;;;;;;;;;;25.20;99.90;;;;;;5014904;28;20129;-68
2023/08/04 01:11:29;;;;;;;;;;;25.70;99.90;;;;;;5015101;28;20091;-68
2023/08/04 01:13:58;;;;;;;;;;;25.50;99.90;;;;;;5014914;28;20135;-68
2023/08/04 01:16:25;;;;;;;;;;;25.40;99.90;;;;;;5014439;28;20109;-68
2023/08/04 01:18:51;;;;;;;;;;;25.80;99.30;;;;;;5014792;28;25169;-68
2023/08/04 01:21:18;;;;;;;;;;;25.20;99.20;;;;;;5014685;28;20437;-68
2023/08/04 01:23:45;;;;;;;;;;;25.80;97.80;;;;;;5014769;28;20450;-68
2023/08/04 01:26:12;;;;;;;;;;;26.10;95.80;;;;;;5014309;28;25106;-69
2023/08/04 01:28:39;;;;;;;;;;;26.20;95.80;;;;;;5014274;28;20001;-69
2023/08/04 01:31:06;;;;;;;;;;;26.50;91.70;;;;;;5014641;28;20077;-68
2023/08/04 01:33:33;;;;;;;;;;;26.40;88.10;;;;;;5014294;28;20447;-68
2023/08/04 01:35:59;;;;;;;;;;;26.20;86.50;;;;;;5014279;28;20158;-69
2023/08/04 01:38:26;;;;;;;;;;;26.00;86.30;;;;;;5014023;28;20085;-68
2023/08/04 01:40:53;;;;;;;;;;;25.30;89.40;;;;;;5014689;28;19956;-69
2023/08/04 01:43:20;;;;;;;;;;;25.40;87.00;;;;;;5014071;28;20088;-68
2023/08/04 01:45:47;;;;;;;;;;;25.30;89.50;;;;;;5013543;28;20104;-69
2023/08/04 01:48:14;;;;;;;;;;;24.90;90.70;;;;;;5013886;28;20069;-68
2023/08/04 01:50:41;;;;;;;;;;;25.80;90.00;;;;;;5014111;28;20556;-69
2023/08/04 01:53:08;;;;;;;;;;;25.80;86.10;;;;;;5013372;28;20479;-69
2023/08/04 01:55:34;;;;;;;;;;;26.40;81.20;;;;;;5013833;28;20091;-69
2023/08/04 01:58:01;;;;;;;;;;;25.70;82.00;;;;;;5014141;28;19965;-68
2023/08/04 02:00:27;;;;;;;;;;;26.00;73.60;;;;;;5014923;28;20100;-68
2023/08/04 02:02:54;;;;;;;;;;;26.10;74.10;;;;;;5013811;28;20095;-68
2023/08/04 02:05:21;;;;;;;;;;;25.70;77.20;;;;;;5013690;28;20063;-68
2023/08/04 02:07:47;;;;;;;;;;;25.70;73.70;;;;;;5013795;28;20186;-68
2023/08/04 02:10:14;;;;;;;;;;;25.70;74.60;;;;;;5013888;28;20134;-69
2023/08/04 02:12:42;;;;;;;;;;;26.20;72.60;;;;;;5013478;28;20508;-68
2023/08/04 02:15:08;;;;;;;;;;;26.50;65.50;;;;;;4995488;28;20125;-69
2023/08/04 02:17:36;;;;;;;;;;;27.00;66.80;;;;;;5013100;28;19975;-69
2023/08/04 02:20:03;;;;;;;;;;;26.10;63.30;;;;;;5013521;28;20117;-69
2023/08/04 02:22:29;;;;;;;;;;;26.00;63.60;;;;;;5013111;28;20070;-69
2023/08/04 02:24:56;;;;;;;;;;;26.50;61.80;;;;;;5013292;28;20079;-69
2023/08/04 02:27:23;;;;;;;;;;;26.90;58.30;;;;;;5011706;28;20143;-70
2023/08/04 02:29:49;;;;;;;;;;;27.20;55.90;;;;;;5010984;28;20098;-69
2023/08/04 02:32:16;;;;;;;;;;;26.60;53.30;;;;;;5012447;28;19988;-70
2023/08/04 02:34:43;;;;;;;;;;;26.80;53.10;;;;;;5012760;28;25064;-69
2023/08/04 02:37:09;;;;;;;;;;;27.30;52.60;;;;;;5013366;28;20001;-69
2023/08/04 02:39:36;;;;;;;;;;;27.80;50.20;;;;;;5012833;28;20142;-69
2023/08/04 02:42:03;;;;;;;;;;;28.10;46.20;;;;;;5012714;28;20115;-69
2023/08/04 02:44:29;;;;;;;;;;;27.70;42.80;;;;;;5012746;28;19972;-70
2023/08/04 02:46:56;;;;;;;;;;;27.70;42.90;;;;;;5013058;28;20094;-69
2023/08/04 02:49:23;;;;;;;;;;;27.40;43.40;;;;;;5013248;28;25083;-69
2023/08/04 02:51:50;;;;;;;;;;;26.70;42.00;;;;;;4995532;28;20472;-69
2023/08/04 02:54:16;;;;;;;;;;;26.80;43.70;;;;;;5012463;28;20367;-69
2023/08/04 02:56:43;;;;;;;;;;;27.40;43.40;;;;;;5011715;28;19982;-69
2023/08/04 02:59:10;;;;;;;;;;;27.20;43.10;;;;;;5012091;28;20121;-69
2023/08/04 03:01:36;;;;;;;;;;;27.40;44.40;;;;;;5012856;28;19990;-69
2023/08/04 03:04:03;;;;;;;;;;;27.30;41.70;;;;;;5012452;28;25147;-69
2023/08/04 03:06:30;;;;;;;;;;;26.80;42.30;;;;;;5012801;28;20135;-69
2023/08/04 03:08:56;;;;;;;;;;;27.00;42.80;;;;;;5012843;28;20218;-69
2023/08/04 03:11:24;;;;;;;;;;;26.50;43.10;;;;;;5012472;28;20189;-69
2023/08/04 03:13:51;;;;;;;;;;;26.70;42.50;;;;;;5011867;28;20001;-68
2023/08/04 03:16:18;;;;;;;;;;;26.80;42.30;;;;;;4991402;28;20560;-69
2023/08/04 03:18:44;;;;;;;;;;;26.10;45.60;;;;;;5010590;28;20469;-68
2023/08/04 03:21:11;;;;;;;;;;;26.00;46.20;;;;;;5010167;28;20085;-69
2023/08/04 03:23:38;;;;;;;;;;;26.40;46.00;;;;;;5010037;28;19976;-68
2023/08/04 03:26:04;;;;;;;;;;;26.50;44.40;;;;;;5009866;28;20047;-68
2023/08/04 03:28:31;;;;;;;;;;;26.40;45.30;;;;;;5010207;28;19977;-69
2023/08/04 03:30:58;;;;;;;;;;;26.40;44.30;;;;;;5010116;28;20078;-69
2023/08/04 03:33:24;;;;;;;;;;;26.60;45.40;;;;;;5010441;28;20108;-68
2023/08/04 03:35:51;;;;;;;;;;;26.90;43.00;;;;;;4991331;28;20468;-68
2023/08/04 03:38:18;;;;;;;;;;;27.20;43.30;;;;;;5008853;28;20188;-68
2023/08/04 03:40:45;;;;;;;;;;;27.00;44.20;;;;;;5010586;28;20191;-69
2023/08/04 03:43:11;;;;;;;;;;;26.80;41.20;;;;;;5010955;28;20233;-69
2023/08/04 03:45:38;;;;;;;;;;;26.30;42.40;;;;;;5009506;28;20105;-68
2023/08/04 03:48:05;;;;;;;;;;;26.20;41.10;;;;;;5010677;28;20560;-69
2023/08/04 03:50:32;;;;;;;;;;;26.20;41.80;;;;;;5009964;28;20212;-69
2023/08/04 03:52:58;;;;;;;;;;;26.10;41.10;;;;;;5009663;28;20054;-69
2023/08/04 03:55:25;;;;;;;;;;;26.20;43.20;;;;;;5009693;28;20081;-70
2023/08/04 03:57:52;;;;;;;;;;;26.70;40.90;;;;;;5010046;28;20083;-69
2023/08/04 04:00:19;;;;;;;;;;;26.70;41.10;;;;;;4992646;28;20431;-69
2023/08/04 04:02:47;;;;;;;;;;;27.00;41.10;;;;;;5010654;28;20107;-69
2023/08/04 04:05:14;;;;;;;;;;;26.90;39.70;;;;;;5009949;28;20030;-69
2023/08/04 04:07:40;;;;;;;;;;;26.30;38.70;;;;;;5010149;28;20484;-69
2023/08/04 04:10:07;;;;;;;;;;;26.70;37.90;;;;;;5012454;28;20133;-69
2023/08/04 04:12:37;;;;;;;;;;;26.70;38.70;;;;;;5014584;28;19978;-69
2023/08/04 04:15:05;;;;;;;;;;;26.90;39.00;;;;;;5013441;28;20279;-69
2023/08/04 04:17:31;;;;;;;;;;;27.00;36.70;;;;;;5013823;28;20174;-69
2023/08/04 04:19:58;;;;;;;;;;;27.50;34.40;;;;;;5013825;28;20034;-69
2023/08/04 04:22:25;;;;;;;;;;;27.50;33.70;;;;;;5012508;28;20135;-69
2023/08/04 04:24:51;;;;;;;;;;;27.50;31.00;;;;;;5013432;28;19984;-69
2023/08/04 04:27:18;;;;;;;;;;;27.00;33.00;;;;;;5013628;28;20114;-69
2023/08/04 04:29:45;;;;;;;;;;;26.50;33.80;;;;;;5014041;28;20139;-69
2023/08/04 04:32:12;;;;;;;;;;;26.50;34.30;;;;;;5013238;28;20121;-69
2023/08/04 04:34:38;;;;;;;;;;;27.00;32.40;;;;;;5012844;28;20128;-69
2023/08/04 04:37:05;;;;;;;;;;;26.80;33.70;;;;;;5012807;28;20555;-69
2023/08/04 04:39:32;;;;;;;;;;;26.30;30.60;;;;;;5013606;28;20031;-69
2023/08/04 04:41:59;;;;;;;;;;;26.40;31.90;;;;;;4996102;28;20097;-69
2023/08/04 04:44:25;;;;;;;;;;;26.60;32.80;;;;;;5012617;28;20091;-69
2023/08/04 04:46:52;;;;;;;;;;;26.90;32.00;;;;;;5013112;28;19990;-69
2023/08/04 04:49:19;;;;;;;;;;;26.80;32.60;;;;;;5013527;28;20249;-69
2023/08/04 04:51:45;;;;;;;;;;;26.30;32.70;;;;;;5012284;28;20618;-69
2023/08/04 04:54:12;;;;;;;;;;;26.10;34.80;;;;;;5012827;28;20127;-69
2023/08/04 04:56:39;;;;;;;;;;;26.20;35.20;;;;;;5012594;28;20104;-69
2023/08/04 04:59:06;;;;;;;;;;;26.10;35.00;;;;;;5012454;28;20568;-69
2023/08/04 05:01:32;;;;;;;;;;;25.90;36.40;;;;;;5012210;28;20020;-68
2023/08/04 05:03:59;;;;;;;;;;;25.80;38.20;;;;;;4994772;28;20095;-68
2023/08/04 05:06:26;;;;;;;;;;;25.80;39.90;;;;;;5012295;28;19994;-68
2023/08/04 05:08:52;;;;;;;;;;;26.00;38.20;;;;;;5012439;28;20108;-69
2023/08/04 05:11:19;;;;;;;;;;;25.80;38.40;;;;;;5012532;28;19975;-69
2023/08/04 05:13:46;;;;;;;;;;;25.80;38.10;;;;;;5011841;28;20489;-68
2023/08/04 05:16:12;;;;;;;;;;;25.80;38.40;;;;;;5011426;28;20180;-69
2023/08/04 05:18:39;;;;;;;;;;;25.60;39.90;;;;;;5012362;28;20100;-69
2023/08/04 05:21:06;;;;;;;;;;;25.50;39.90;;;;;;5010701;28;20141;-69
2023/08/04 05:23:32;;;;;;;;;;;25.20;41.30;;;;;;5009610;28;20096;-69
2023/08/04 05:25:59;;;;;;;;;;;25.30;42.60;;;;;;5011947;28;20124;-69
2023/08/04 05:28:30;;;;;;;;;;;25.50;43.80;;;;;;5012277;28;20081;-69
2023/08/04 05:30:58;;;;;;;;;;;25.60;41.80;;;;;;5011474;28;20113;-69
2023/08/04 05:33:25;;;;;;;;;;;25.30;43.00;;;;;;5011548;28;20983;-69
2023/08/04 05:35:51;;;;;;;;;;;25.50;43.80;;;;;;5011274;28;20115;-69
2023/08/04 05:38:18;;;;;;;;;;;25.50;42.40;;;;;;5010898;28;19971;-69
2023/08/04 05:40:45;;;;;;;;;;;25.40;43.10;;;;;;5011163;28;20089;-69
2023/08/04 05:43:12;;;;;;;;;;;25.30;43.80;;;;;;5011387;28;20480;-69
2023/08/04 05:45:40;;;;;;;;;;;25.10;42.00;;;;;;5010642;28;20099;-69
2023/08/04 05:48:07;;;;;;;;;;;24.70;42.50;;;;;;5011231;28;20003;-69
2023/08/04 05:50:34;;;;;;;;;;;24.50;43.20;;;;;;5011349;28;20159;-69
2023/08/04 05:53:01;;;;;;;;;;;24.40;43.00;;;;;;5006549;28;20703;-69
2023/08/04 05:55:29;;;;;;;;;;;24.40;42.50;;;;;;5011356;28;25127;-69
2023/08/04 05:57:56;;;;;;;;;;;24.50;42.50;;;;;;5011368;28;20092;-69
2023/08/04 06:00:24;;;;;;;;;;;24.30;41.60;;;;;;5011718;28;20076;-69
2023/08/04 06:02:51;;;;;;;;;;;24.00;41.90;;;;;;5011529;28;20120;-69
2023/08/04 06:05:17;;;;;;;;;;;23.90;41.70;;;;;;5010890;28;20184;-69
2023/08/04 06:07:44;;;;;;;;;;;23.80;40.50;;;;;;5009869;28;20108;-69
2023/08/04 06:10:11;;;;;;;;;;;23.90;40.10;;;;;;5012017;28;20485;-69
2023/08/04 06:12:38;;;;;;;;;;;23.90;38.30;;;;;;5012711;28;19971;-69
2023/08/04 06:15:05;;;;;;;;;;;23.90;38.10;;;;;;5013153;28;20144;-69
2023/08/04 06:17:32;;;;;;;;;;;23.70;38.50;;;;;;5013665;28;20094;-69
2023/08/04 06:19:59;;;;;;;;;;;23.50;38.30;;;;;;5013722;28;20128;-69
2023/08/04 06:22:26;;;;;;;;;;;23.30;38.50;;;;;;5012995;28;20083;-70
2023/08/04 06:24:52;;;;;;;;;;;23.20;39.30;;;;;;5013489;28;19956;-69
2023/08/04 06:27:19;;;;;;;;;;;23.10;39.10;;;;;;4992124;28;19957;-69
2023/08/04 06:29:46;;;;;;;;;;;23.10;39.80;;;;;;5011560;28;20477;-71
2023/08/04 06:32:12;;;;;;;;;;;23.00;40.00;;;;;;5011401;28;20409;-70
2023/08/04 06:34:39;;;;;;;;;;;23.00;39.60;;;;;;5010716;28;20457;-69
2023/08/04 06:37:06;;;;;;;;;;;22.90;39.40;;;;;;5011264;28;19951;-69
2023/08/04 06:39:33;;;;;;;;;;;22.90;40.20;;;;;;5011366;28;20076;-70
2023/08/04 06:41:59;;;;;;;;;;;22.80;40.50;;;;;;5010649;28;20086;-69
2023/08/04 06:44:26;;;;;;;;;;;22.80;40.50;;;;;;4993831;28;20085;-70
2023/08/04 06:46:53;;;;;;;;;;;22.70;41.00;;;;;;5011643;28;19960;-69
2023/08/04 06:49:20;;;;;;;;;;;22.70;40.00;;;;;;5010619;28;19943;-70
2023/08/04 06:51:49;;;;;;;;;;;22.50;40.20;;;;;;5010882;28;19980;-70
2023/08/04 06:54:16;;;;;;;;;;;22.40;41.50;;;;;;5010443;28;20208;-68
2023/08/04 06:56:43;;;;;;;;;;;22.20;42.20;;;;;;5010781;28;20076;-69
2023/08/04 06:59:10;;;;;;;;;;;22.30;42.20;;;;;;5007246;28;20093;-69
2023/08/04 07:01:37;;;;;;;;;;;22.20;42.80;;;;;;5010589;28;20530;-69
2023/08/04 07:04:04;;;;;;;;;;;22.10;42.90;;;;;;5010124;28;20094;-69
2023/08/04 07:06:31;;;;;;;;;;;21.90;43.80;;;;;;5007411;28;20092;-70
2023/08/04 07:08:57;;;;;;;;;;;21.70;45.00;;;;;;5011039;28;20585;-71
2023/08/04 07:11:24;;;;;;;;;;;21.50;46.40;;;;;;5009807;28;25091;-69
2023/08/04 07:13:51;;;;;;;;;;;21.20;48.40;;;;;;5010390;28;20090;-68
2023/08/04 07:16:17;;;;;;;;;;;20.90;51.20;;;;;;5010364;28;19968;-69
2023/08/04 07:18:44;;;;;;;;;;;20.70;55.50;;;;;;5012848;28;20429;-68
2023/08/04 07:21:11;;;;;;;;;;;20.40;56.30;;;;;;5016712;28;20548;-68
2023/08/04 07:23:39;;;;;;;;;;;20.20;59.20;;;;;;5020235;28;19968;-69
2023/08/04 07:26:06;;;;;;;;;;;20.00;64.20;;;;;;5021607;28;20468;-70
2023/08/04 07:28:33;;;;;;;;;;;19.80;73.30;;;;;;5003454;28;20088;-69
2023/08/04 07:31:07;;;;;;;;;;;19.50;76.90;;;;;;5021461;28;20447;-70
2023/08/04 07:33:34;;;;;;;;;;;19.30;81.60;;;;;;5018796;28;19913;-69
2023/08/04 07:36:02;;;;;;;;;;;19.20;87.30;;;;;;5007456;28;24086;-71
2023/08/04 07:38:29;;;;;;;;;;;19.00;92.70;;;;;;5014728;28;19955;-69
2023/08/04 07:40:56;;;;;;;;;;;18.80;95.70;;;;;;5019689;28;20119;-70
2023/08/04 07:43:23;;;;;;;;;;;18.70;99.00;;;;;;5019677;28;20420;-69
2023/08/04 07:45:50;;;;;;;;;;;18.60;99.90;;;;;;5023881;28;24066;-69
2023/08/04 07:48:17;;;;;;;;;;;18.40;99.90;;;;;;5023669;28;19909;-69
2023/08/04 07:50:45;;;;;;;;;;;18.30;99.90;;;;;;5021826;28;20593;-69
2023/08/04 07:53:12;;;;;;;;;;;18.20;99.90;;;;;;5013465;28;20000;-69
2023/08/04 07:55:39;;;;;;;;;;;18.10;99.90;;;;;;5013741;28;24071;-69
2023/08/04 07:58:09;;;;;;;;;;;18.00;99.90;;;;;;5013896;28;19957;-69
2023/08/04 08:00:36;;;;;;;;;;;17.90;99.90;;;;;;5013995;28;24080;-68
2023/08/04 08:03:03;;;;;;;;;;;17.80;99.90;;;;;;5013252;28;20472;-70
2023/08/04 08:05:30;;;;;;;;;;;17.60;99.90;;;;;;5010279;28;20437;-69
2023/08/04 08:07:56;;;;;;;;;;;17.50;99.90;;;;;;5009238;28;24066;-68
2023/08/04 08:10:23;;;;;;;;;;;17.50;99.90;;;;;;5007812;28;19928;-69
2023/08/04 08:12:50;;;;;;;;;;;17.50;99.90;;;;;;5008481;28;20006;-69
2023/08/04 08:15:16;;;;;;;;;;;17.30;99.90;;;;;;5010600;28;19917;-68
2023/08/04 08:17:43;;;;;;;;;;;17.20;99.90;;;;;;5009532;28;24106;-68
2023/08/04 08:20:10;;;;;;;;;;;17.20;99.90;;;;;;5006355;28;19948;-69
2023/08/04 08:22:37;;;;;;;;;;;17.10;99.90;;;;;;5001383;28;19913;-69
2023/08/04 08:25:03;;;;;;;;;;;17.00;99.90;;;;;;5010988;28;24134;-68
2023/08/04 08:27:30;;;;;;;;;;;17.00;99.90;;;;;;5011624;28;19921;-68
2023/08/04 08:29:57;;;;;;;;;;;16.90;99.90;;;;;;5012845;28;19909;-69
2023/08/04 08:32:24;;;;;;;;;;;16.80;99.90;;;;;;5013244;28;25055;-69
2023/08/04 08:34:50;;;;;;;;;;;16.60;99.90;;;;;;5011703;28;20554;-69
2023/08/04 08:37:17;;;;;;;;;;;16.60;99.90;;;;;;5011608;28;24133;-68
2023/08/04 08:39:44;;;;;;;;;;;16.60;99.90;;;;;;5013373;28;20322;-69
2023/08/04 08:42:10;;;;;;;;;;;16.50;99.90;;;;;;5012340;28;24081;-69
2023/08/04 08:44:37;;;;;;;;;;;16.40;99.90;;;;;;5012408;28;20030;-68
2023/08/04 08:47:04;;;;;;;;;;;16.20;99.90;;;;;;4995328;28;25049;-69
2023/08/04 08:49:34;;;;;;;;;;;16.20;99.90;;;;;;5004074;28;19916;-69
2023/08/04 08:52:02;;;;;;;;;;;16.10;99.90;;;;;;5011422;28;20000;-68
2023/08/04 08:54:29;;;;;;;;;;;16.10;99.90;;;;;;5013080;28;19914;-69
2023/08/04 08:56:56;;;;;;;;;;;16.00;99.90;;;;;;5012915;28;19912;-69
2023/08/04 08:59:23;;;;;;;;;;;16.00;99.90;;;;;;5012684;28;24071;-68
2023/08/04 09:02:17;;;;;;;;;;;15.90;99.90;;;;;;5013052;28;20405;-70
2023/08/04 09:04:43;;;;;;;;;;;15.80;99.90;;;;;;5013301;28;24076;-68
2023/08/04 09:07:10;;;;;;;;;;;15.70;99.90;;;;;;5012712;28;24075;-68
2023/08/04 09:09:37;;;;;;;;;;;15.70;99.90;;;;;;5013043;28;20012;-69
2023/08/04 09:12:04;;;;;;;;;;;15.60;99.90;;;;;;5013311;28;24082;-69
2023/08/04 09:14:46;;;;;;;;;;;15.70;99.90;;;;;;5012278;28;19991;-69
2023/08/04 09:17:28;;;;;;;;;;;15.70;99.90;;;;;;5010672;28;19980;-68
2023/08/04 09:19:54;;;;;;;;;;;15.70;99.90;;;;;;5009979;28;19916;-68
2023/08/04 09:22:21;;;;;;;;;;;15.60;99.90;;;;;;5014619;28;19909;-69
2023/08/04 09:24:55;;;;;;;;;;;15.60;99.90;;;;;;5014440;28;19916;-69
2023/08/04 09:27:28;;;;;;;;;;;15.50;99.90;;;;;;5014392;28;20111;-69
2023/08/04 09:29:59;;;;;;;;;;;15.40;99.90;;;;;;5014588;28;24073;-69
2023/08/04 09:32:26;;;;;;;;;;;15.30;99.90;;;;;;5018758;28;19924;-69
2023/08/04 09:34:59;;;;;;;;;;;15.20;99.90;;;;;;5015137;28;19917;-69
2023/08/04 09:37:26;;;;;;;;;;;15.10;99.90;;;;;;5014045;28;19913;-69
2023/08/04 09:39:53;;;;;;;;;;;15.10;99.90;;;;;;5013520;28;24081;-69
2023/08/04 09:42:21;;;;;;;;;;;15.20;99.90;;;;;;5013459;28;25133;-69
2023/08/04 09:44:55;;;;;;;;;;;15.10;99.90;;;;;;4998281;28;24073;-69
2023/08/04 09:47:25;;;;;;;;;;;15.00;99.90;;;;;;5001357;28;24068;-69
2023/08/04 09:49:52;;;;;;;;;;;14.90;99.90;;;;;;5014015;28;24081;-69
2023/08/04 09:52:23;;;;;;;;;;;14.80;99.90;;;;;;5013712;28;24061;-69
2023/08/04 09:54:52;;;;;;;;;;;14.80;99.90;;;;;;5013508;28;24078;-69
2023/08/04 09:57:18;;;;;;;;;;;14.70;99.90;;;;;;5013710;28;24152;-70
2023/08/04 09:59:47;;;;;;;;;;;14.60;99.90;;;;;;4996169;28;24066;-71
2023/08/04 10:02:14;;;;;;;;;;;14.60;99.90;;;;;;5013680;28;19952;-68
2023/08/04 10:04:41;;;;;;;;;;;14.40;99.90;;;;;;5013507;28;20335;-69
2023/08/04 10:07:11;;;;;;;;;;;14.40;99.90;;;;;;5013464;28;19905;-69
2023/08/04 10:09:38;;;;;;;;;;;14.40;99.90;;;;;;5012447;28;25072;-70
2023/08/04 10:12:05;;;;;;;;;;;14.40;99.90;;;;;;5013204;28;19909;-70
2023/08/04 10:14:32;;;;;;;;;;;14.20;99.90;;;;;;5012783;28;19914;-68
2023/08/04 10:16:58;;;;;;;;;;;14.20;99.90;;;;;;5012751;28;19913;-70
2023/08/04 10:19:27;;;;;;;;;;;14.10;99.90;;;;;;5013351;28;24144;-68
2023/08/04 10:21:54;;;;;;;;;;;14.20;99.90;;;;;;5013209;28;19980;-69
2023/08/04 10:24:22;;;;;;;;;;;14.00;99.90;;;;;;5012291;28;24061;-69
2023/08/04 10:26:52;;;;;;;;;;;13.90;99.90;;;;;;5013207;28;20333;-69
2023/08/04 10:29:19;;;;;;;;;;;13.90;99.90;;;;;;5013079;28;20062;-68
2023/08/04 10:31:48;;;;;;;;;;;13.90;99.90;;;;;;5012050;28;24057;-69
2023/08/04 10:34:16;;;;;;;;;;;13.90;99.90;;;;;;5012547;28;19967;-67
2023/08/04 10:37:02;;;;;;;;;;;13.90;99.90;;;;;;5012378;28;19914;-68
2023/08/04 10:39:30;;;;;;;;;;;13.80;99.90;;;;;;4993216;28;20351;-69
2023/08/04 10:41:57;;;;;;;;;;;13.80;99.90;;;;;;5002019;28;19906;-68
2023/08/04 10:44:30;;;;;;;;;;;13.70;99.90;;;;;;5012431;28;24110;-68
2023/08/04 10:47:00;;;;;;;;;;;13.60;99.90;;;;;;5003087;28;24076;-70
2023/08/04 10:49:27;;;;;;;;;;;13.60;99.90;;;;;;5010476;28;20000;-68
2023/08/04 10:51:54;;;;;;;;;;;13.50;99.90;;;;;;5010076;28;20230;-69
2023/08/04 10:54:21;;;;;;;;;;;13.40;99.90;;;;;;5009829;28;19956;-69
2023/08/04 10:56:48;;;;;;;;;;;13.40;99.90;;;;;;5011326;28;20255;-69
2023/08/04 10:59:14;;;;;;;;;;;13.30;99.90;;;;;;5012124;28;19909;-69
2023/08/04 11:01:41;;;;;;;;;;;13.30;99.90;;;;;;5010974;28;24068;-71
2023/08/04 11:04:08;;;;;;;;;;;13.30;99.90;;;;;;5011097;28;19916;-69
2023/08/04 11:06:35;;;;;;;;;;;13.30;99.90;;;;;;5011210;28;19937;-68
2023/08/04 11:09:02;;;;;;;;;;;13.30;99.90;;;;;;4992925;28;19925;-68
2023/08/04 11:11:29;;;;;;;;;;;13.20;99.90;;;;;;5000721;28;19910;-70
2023/08/04 11:13:59;;;;;;;;;;;13.20;99.90;;;;;;5011952;28;25066;-69
2023/08/04 11:16:26;;;;;;;;;;;13.10;99.90;;;;;;5011799;28;19956;-69
2023/08/04 11:18:55;;;;;;;;;;;13.10;99.90;;;;;;5011659;28;19909;-68
2023/08/04 11:21:22;;;;;;;;;;;13.00;99.90;;;;;;5012109;28;19933;-68
2023/08/04 11:23:48;;;;;;;;;;;13.00;99.90;;;;;;5012152;28;19913;-69
2023/08/04 11:26:16;;;;;;;;;;;13.00;99.90;;;;;;5011690;28;24069;-68
2023/08/04 11:28:43;;;;;;;;;;;12.90;99.90;;;;;;5011495;28;24071;-69
2023/08/04 11:31:09;;;;;;;;;;;12.90;99.90;;;;;;5011742;28;20256;-69
2023/08/04 11:33:43;;;;;;;;;;;12.90;99.90;;;;;;5011560;28;19917;-69
2023/08/04 11:36:10;;;;;;;;;;;12.80;99.90;;;;;;5011986;28;19909;-69
2023/08/04 11:38:37;;;;;;;;;;;12.80;99.90;;;;;;4993101;28;19960;-69
2023/08/04 11:41:07;;;;;;;;;;;12.80;99.90;;;;;;5011163;28;20356;-69
2023/08/04 11:43:33;;;;;;;;;;;12.80;99.90;;;;;;5011268;28;19914;-69
2023/08/04 11:46:03;;;;;;;;;;;12.70;99.90;;;;;;5011349;28;19917;-69
2023/08/04 11:48:30;;;;;;;;;;;12.70;99.90;;;;;;5011140;28;19913;-69
2023/08/04 11:50:57;;;;;;;;;;;12.70;99.90;;;;;;5011649;28;24074;-70
2023/08/04 11:53:24;;;;;;;;;;;12.70;99.90;;;;;;5011278;28;19913;-69
2023/08/04 11:55:57;;;;;;;;;;;12.70;99.90;;;;;;5011173;28;19922;-69
2023/08/04 11:58:30;;;;;;;;;;;12.60;99.90;;;;;;5011227;28;20318;-69
2023/08/04 12:00:57;;;;;;;;;;;12.50;99.90;;;;;;5011361;28;24171;-69
2023/08/04 12:03:23;;;;;;;;;;;12.40;99.90;;;;;;4993891;28;25122;-69
2023/08/04 12:05:51;;;;;;;;;;;12.40;99.90;;;;;;5011759;28;19963;-69
2023/08/04 12:08:18;;;;;;;;;;;12.40;99.90;;;;;;5011442;28;24114;-69
2023/08/04 12:10:45;;;;;;;;;;;12.20;99.90;;;;;;5011485;28;20339;-69
2023/08/04 12:13:30;;;;;;;;;;;12.20;99.90;;;;;;5010276;28;24139;-69
2023/08/04 12:15:56;;;;;;;;;;;12.20;99.90;;;;;;5011279;28;19913;-69
2023/08/04 12:18:27;;;;;;;;;;;12.30;99.90;;;;;;5011321;28;19909;-69
2023/08/04 12:20:53;;;;;;;;;;;12.20;99.90;;;;;;5011083;28;19959;-69
2023/08/04 12:23:20;;;;;;;;;;;12.10;99.90;;;;;;5010641;28;19917;-69
2023/08/04 12:25:47;;;;;;;;;;;12.00;99.90;;;;;;5011832;28;19905;-69
2023/08/04 12:28:13;;;;;;;;;;;12.00;99.90;;;;;;5010877;28;19975;-69
2023/08/04 12:30:40;;;;;;;;;;;11.90;99.90;;;;;;5011221;28;19909;-69
2023/08/04 12:33:07;;;;;;;;;;;11.90;99.90;;;;;;5013169;28;19917;-70
2023/08/04 12:35:35;;;;;;;;;;;11.80;99.90;;;;;;5008282;28;24139;-69
2023/08/04 12:38:04;;;;;;;;;;;11.80;99.90;;;;;;5014790;28;19906;-68
2023/08/04 12:40:32;;;;;;;;;;;11.80;99.90;;;;;;5008469;28;19963;-67
2023/08/04 12:42:58;;;;;;;;;;;11.80;99.90;;;;;;5010471;28;20347;-69
2023/08/04 12:45:25;;;;;;;;;;;11.70;99.90;;;;;;5011686;28;20371;-69
2023/08/04 12:47:52;;;;;;;;;;;11.70;99.90;;;;;;4990371;28;19920;-69
2023/08/04 12:50:19;;;;;;;;;;;11.70;99.90;;;;;;5008838;28;19909;-68
2023/08/04 12:52:46;;;;;;;;;;;11.70;99.90;;;;;;5013958;28;19917;-69
2023/08/04 12:55:12;;;;;;;;;;;11.70;99.90;;;;;;5014546;28;19913;-69
2023/08/04 12:57:39;;;;;;;;;;;11.60;99.90;;;;;;5014455;28;25066;-69
2023/08/04 13:00:06;;;;;;;;;;;11.60;99.90;;;;;;5014218;28;19917;-69
2023/08/04 13:02:33;;;;;;;;;;;11.50;99.90;;;;;;5014236;28;19935;-70
2023/08/04 13:04:59;;;;;;;;;;;11.50;99.90;;;;;;5011836;28;19949;-69
2023/08/04 13:07:26;;;;;;;;;;;11.50;99.90;;;;;;5010147;28;19988;-67
2023/08/04 13:09:53;;;;;;;;;;;11.50;99.90;;;;;;5013915;28;25078;-69
2023/08/04 13:12:19;;;;;;;;;;;11.60;99.90;;;;;;5010329;28;25146;-68
2023/08/04 13:14:46;;;;;;;;;;;11.50;99.90;;;;;;5014404;28;19914;-71
2023/08/04 13:17:13;;;;;;;;;;;11.50;99.90;;;;;;5010942;28;24091;-69
2023/08/04 13:19:39;;;;;;;;;;;11.40;99.90;;;;;;4996100;28;19956;-67
2023/08/04 13:22:06;;;;;;;;;;;11.40;99.90;;;;;;5013350;28;20282;-67
2023/08/04 13:24:33;;;;;;;;;;;11.30;99.90;;;;;;5013897;28;20274;-67
2023/08/04 13:26:59;;;;;;;;;;;11.40;99.90;;;;;;5011037;28;24053;-67
2023/08/04 13:29:26;;;;;;;;;;;11.30;99.90;;;;;;5013417;28;19917;-67
2023/08/04 13:31:53;;;;;;;;;;;11.20;99.90;;;;;;4993334;28;19960;-68
2023/08/04 13:34:19;;;;;;;;;;;11.20;99.90;;;;;;5010743;28;19918;-68
2023/08/04 13:36:46;;;;;;;;;;;11.20;99.90;;;;;;5010793;28;19906;-67
2023/08/04 13:39:13;;;;;;;;;;;11.20;99.90;;;;;;5013593;28;24065;-67
2023/08/04 13:41:40;;;;;;;;;;;11.20;99.90;;;;;;5011867;28;19928;-68
2023/08/04 13:44:06;;;;;;;;;;;11.20;99.90;;;;;;5011817;28;19909;-68
2023/08/04 13:46:33;;;;;;;;;;;11.20;99.90;;;;;;5011673;28;19905;-68
2023/08/04 13:48:59;;;;;;;;;;;11.10;99.90;;;;;;5010301;28;19917;-68
2023/08/04 13:51:26;;;;;;;;;;;11.00;99.90;;;;;;5013089;28;19905;-68
2023/08/04 13:53:53;;;;;;;;;;;11.00;99.90;;;;;;5013156;28;19913;-69
2023/08/04 13:56:19;;;;;;;;;;;11.00;99.90;;;;;;5008889;28;19932;-69
2023/08/04 13:58:46;;;;;;;;;;;11.00;99.90;;;;;;5010057;28;19909;-69
2023/08/04 14:01:13;;;;;;;;;;;10.90;99.90;;;;;;5013365;28;19905;-69
2023/08/04 14:03:39;;;;;;;;;;;11.00;99.90;;;;;;5012742;28;25111;-69
2023/08/04 14:06:06;;;;;;;;;;;11.00;99.90;;;;;;5013337;28;24068;-67
2023/08/04 14:08:33;;;;;;;;;;;11.00;99.90;;;;;;5010137;28;19917;-67
2023/08/04 14:10:59;;;;;;;;;;;11.00;99.90;;;;;;5012751;28;19906;-67
2023/08/04 14:13:26;;;;;;;;;;;10.90;99.90;;;;;;5012892;28;20355;-67
2023/08/04 14:15:53;;;;;;;;;;;10.90;99.90;;;;;;5013133;28;24072;-67